createdAt,value
2022-07-29T00:00:57.800Z,30.70
2022-07-29T00:03:24.570Z,30.73
2022-07-29T00:05:53.146Z,30.73
2022-07-29T00:08:20.107Z,30.68
2022-07-29T00:10:46.747Z,30.62
2022-07-29T00:13:13.430Z,30.59
2022-07-29T00:15:40.118Z,30.61
2022-07-29T00:18:06.723Z,30.60
2022-07-29T00:20:33.345Z,30.57
2022-07-29T00:22:59.929Z,30.58
2022-07-29T00:25:26.688Z,30.61
2022-07-29T00:27:53.273Z,30.59
2022-07-29T00:30:19.895Z,30.53
2022-07-29T00:32:46.474Z,30.51
2022-07-29T00:35:31.780Z,30.58
2022-07-29T00:38:00.194Z,30.60
2022-07-29T00:40:28.705Z,30.53
2022-07-29T00:42:55.326Z,30.58
2022-07-29T00:45:23.171Z,30.52
2022-07-29T00:47:49.978Z,30.57
2022-07-29T00:50:16.585Z,30.55
2022-07-29T00:52:43.407Z,30.57
2022-07-29T00:55:11.984Z,30.49
2022-07-29T00:57:38.749Z,30.46
2022-07-29T01:00:18.035Z,30.43
2022-07-29T01:02:45.517Z,30.40
2022-07-29T01:05:12.360Z,30.39
2022-07-29T01:07:38.970Z,30.37
2022-07-29T01:10:05.939Z,30.37
2022-07-29T01:12:35.319Z,30.39
2022-07-29T01:15:02.794Z,30.42
2022-07-29T01:17:57.266Z,30.49
2022-07-29T01:20:47.245Z,30.43
2022-07-29T01:23:32.052Z,30.36
2022-07-29T01:26:20.486Z,30.38
2022-07-29T01:29:16.380Z,30.38
2022-07-29T01:31:59.366Z,30.32
2022-07-29T01:34:51.653Z,30.29
2022-07-29T01:37:46.372Z,30.28
2022-07-29T01:40:19.647Z,30.30
2022-07-29T01:42:49.101Z,30.28
2022-07-29T01:45:18.215Z,30.23
2022-07-29T01:47:48.659Z,30.20
2022-07-29T01:50:17.547Z,30.22
2022-07-29T01:53:07.920Z,30.20
2022-07-29T01:55:39.896Z,30.22
2022-07-29T01:58:06.851Z,30.20
2022-07-29T02:00:34.353Z,30.24
2022-07-29T02:03:03.865Z,30.20
2022-07-29T02:05:30.584Z,30.17
2022-07-29T02:07:57.282Z,30.17
2022-07-29T02:10:26.215Z,30.27
2022-07-29T02:12:52.913Z,30.25
2022-07-29T02:15:19.639Z,30.19
2022-07-29T02:17:53.535Z,30.13
2022-07-29T02:20:20.157Z,30.16
2022-07-29T02:22:46.741Z,30.09
2022-07-29T02:25:13.893Z,29.99
2022-07-29T02:27:40.939Z,30.01
2022-07-29T02:30:11.067Z,30.01
2022-07-29T02:32:38.271Z,29.99
2022-07-29T02:35:07.958Z,29.95
2022-07-29T02:37:34.567Z,29.93
2022-07-29T02:40:01.184Z,29.88
2022-07-29T02:42:27.840Z,29.80
2022-07-29T02:44:54.448Z,29.86
2022-07-29T02:47:43.720Z,29.76
2022-07-29T02:50:29.122Z,29.78
2022-07-29T02:53:00.151Z,29.78
2022-07-29T02:55:41.943Z,29.73
2022-07-29T02:58:14.600Z,29.71
2022-07-29T03:00:41.411Z,29.72
2022-07-29T03:03:10.356Z,29.63
2022-07-29T03:05:36.939Z,29.59
2022-07-29T03:08:06.220Z,29.60
2022-07-29T03:10:32.894Z,29.56
2022-07-29T03:12:59.586Z,29.48
2022-07-29T03:15:26.259Z,29.52
2022-07-29T03:17:52.930Z,29.56
2022-07-29T03:20:19.606Z,29.46
2022-07-29T03:22:48.102Z,29.38
2022-07-29T03:25:16.035Z,29.39
2022-07-29T03:27:43.133Z,29.36
2022-07-29T03:30:10.317Z,29.35
2022-07-29T03:32:37.187Z,29.29
2022-07-29T03:35:05.144Z,29.32
2022-07-29T03:37:32.037Z,29.29
2022-07-29T03:39:58.923Z,29.35
2022-07-29T03:42:32.429Z,29.29
2022-07-29T03:45:02.866Z,29.43
2022-07-29T03:47:47.992Z,29.35
2022-07-29T03:50:16.743Z,29.36
2022-07-29T03:52:43.601Z,29.38
2022-07-29T03:55:12.186Z,29.38
2022-07-29T03:57:38.791Z,29.41
2022-07-29T04:00:06.482Z,29.47
2022-07-29T04:02:33.551Z,29.44
2022-07-29T04:05:00.605Z,29.47
2022-07-29T04:07:27.223Z,29.45
2022-07-29T04:09:53.865Z,29.42
2022-07-29T04:12:22.033Z,29.36
2022-07-29T04:14:48.653Z,29.34
2022-07-29T04:17:15.293Z,29.35
2022-07-29T04:19:41.913Z,29.40
2022-07-29T04:22:08.566Z,29.33
2022-07-29T04:24:35.531Z,29.33
2022-07-29T04:27:02.163Z,29.34
2022-07-29T04:29:28.792Z,29.34
2022-07-29T04:31:55.420Z,29.33
2022-07-29T04:34:22.237Z,29.38
2022-07-29T04:36:48.833Z,29.53
2022-07-29T04:39:20.641Z,29.58
2022-07-29T04:41:50.271Z,29.62
2022-07-29T04:44:17.361Z,29.52
2022-07-29T04:46:45.689Z,29.62
2022-07-29T04:49:12.604Z,29.53
2022-07-29T04:51:39.249Z,29.65
2022-07-29T04:54:05.895Z,29.61
2022-07-29T04:56:32.766Z,29.67
2022-07-29T04:58:59.409Z,29.67
2022-07-29T05:01:26.097Z,29.72
2022-07-29T05:03:57.022Z,29.79
2022-07-29T05:06:26.553Z,29.97
2022-07-29T05:08:53.136Z,30.03
2022-07-29T05:11:22.472Z,30.03
2022-07-29T05:13:50.971Z,30.15
2022-07-29T05:16:17.669Z,30.07
2022-07-29T05:18:44.399Z,30.20
2022-07-29T05:21:11.026Z,30.34
2022-07-29T05:23:37.624Z,30.39
2022-07-29T05:26:04.233Z,30.38
2022-07-29T05:28:34.858Z,30.53
2022-07-29T05:31:01.650Z,30.55
2022-07-29T05:33:34.813Z,30.59
2022-07-29T05:36:03.014Z,30.73
2022-07-29T05:38:29.882Z,30.93
2022-07-29T05:40:58.674Z,31.08
2022-07-29T05:43:25.291Z,31.11
2022-07-29T05:45:51.916Z,31.31
2022-07-29T05:48:18.558Z,31.44
2022-07-29T05:50:45.172Z,31.31
2022-07-29T05:53:19.967Z,31.56
2022-07-29T05:55:48.023Z,31.73
2022-07-29T05:58:14.687Z,31.70
2022-07-29T06:00:41.302Z,31.90
2022-07-29T06:03:07.941Z,32.11
2022-07-29T06:05:34.545Z,32.14
2022-07-29T06:08:01.206Z,32.28
2022-07-29T06:10:27.909Z,32.47
2022-07-29T06:12:54.648Z,32.43
2022-07-29T06:15:21.273Z,32.30
2022-07-29T06:18:00.153Z,32.58
2022-07-29T06:20:30.791Z,32.82
2022-07-29T06:22:57.752Z,33.18
2022-07-29T06:25:24.380Z,33.31
2022-07-29T06:27:50.981Z,33.05
2022-07-29T06:30:17.729Z,33.21
2022-07-29T06:32:44.332Z,32.96
2022-07-29T06:35:39.237Z,33.33
2022-07-29T06:37:59.619Z,33.24
2022-07-29T06:40:45.527Z,33.16
2022-07-29T06:43:12.266Z,33.35
2022-07-29T06:45:42.355Z,33.61
2022-07-29T06:48:09.668Z,33.75
2022-07-29T06:50:36.372Z,33.35
2022-07-29T06:53:02.997Z,33.90
2022-07-29T06:55:29.595Z,33.93
2022-07-29T06:57:56.250Z,34.42
2022-07-29T07:00:22.842Z,34.60
2022-07-29T07:02:49.560Z,34.55
2022-07-29T07:05:16.234Z,34.85
2022-07-29T07:07:42.817Z,35.24
2022-07-29T07:10:09.700Z,35.16
2022-07-29T07:12:36.346Z,36.04
2022-07-29T07:15:03.150Z,36.27
2022-07-29T07:17:30.010Z,36.64
2022-07-29T07:19:56.605Z,37.66
2022-07-29T07:22:23.205Z,38.19
2022-07-29T07:24:49.921Z,38.79
2022-07-29T07:27:16.525Z,39.76
2022-07-29T07:29:44.316Z,40.96
2022-07-29T07:32:11.238Z,40.41
2022-07-29T07:34:39.059Z,41.33
2022-07-29T07:37:06.197Z,41.23
2022-07-29T07:39:32.824Z,41.23
2022-07-29T07:41:59.576Z,41.09
2022-07-29T07:44:26.197Z,41.87
2022-07-29T07:46:53.253Z,42.39
2022-07-29T07:49:21.327Z,42.45
2022-07-29T07:51:50.657Z,42.18
2022-07-29T07:54:18.343Z,42.22
2022-07-29T07:56:49.979Z,41.80
2022-07-29T07:59:19.578Z,42.39
2022-07-29T08:01:54.666Z,43.07
2022-07-29T08:04:27.426Z,43.41
2022-07-29T08:06:57.730Z,43.52
2022-07-29T08:09:29.687Z,43.23
2022-07-29T08:11:57.700Z,44.31
2022-07-29T08:14:24.332Z,44.51
2022-07-29T08:16:52.200Z,44.84
2022-07-29T08:19:18.970Z,45.00
2022-07-29T08:21:45.536Z,45.61
2022-07-29T08:24:31.075Z,45.79
2022-07-29T08:26:57.663Z,44.63
2022-07-29T08:29:24.280Z,45.48
2022-07-29T08:31:51.194Z,45.49
2022-07-29T08:34:18.030Z,46.02
2022-07-29T08:36:44.631Z,46.27
2022-07-29T08:39:16.880Z,46.39
2022-07-29T08:41:56.990Z,46.30
2022-07-29T08:44:30.416Z,45.96
2022-07-29T08:46:57.886Z,46.34
2022-07-29T08:49:24.613Z,46.06
2022-07-29T08:51:51.320Z,47.02
2022-07-29T08:54:18.540Z,46.45
2022-07-29T08:56:45.529Z,45.85
2022-07-29T08:59:12.199Z,47.20
2022-07-29T09:01:45.242Z,47.75
2022-07-29T09:04:12.548Z,47.79
2022-07-29T09:06:43.125Z,46.33
2022-07-29T09:09:10.192Z,45.11
2022-07-29T09:11:36.829Z,45.18
2022-07-29T09:14:03.505Z,46.00
2022-07-29T09:16:53.057Z,45.72
2022-07-29T09:19:24.220Z,46.22
2022-07-29T09:21:59.774Z,46.18
2022-07-29T09:24:27.108Z,46.12
2022-07-29T09:26:53.937Z,46.47
2022-07-29T09:29:22.897Z,46.31
2022-07-29T09:31:51.249Z,46.13
2022-07-29T09:34:29.138Z,46.18
2022-07-29T09:36:56.377Z,46.50
2022-07-29T09:39:38.493Z,46.75
2022-07-29T09:42:06.338Z,46.75
2022-07-29T09:44:43.477Z,47.01
2022-07-29T09:47:10.219Z,47.45
2022-07-29T09:50:00.302Z,46.99
2022-07-29T09:52:27.787Z,47.54
2022-07-29T09:54:57.213Z,47.06
2022-07-29T09:57:31.189Z,46.60
2022-07-29T10:00:09.074Z,46.07
2022-07-29T10:02:36.634Z,46.66
2022-07-29T10:05:05.407Z,46.39
2022-07-29T10:07:51.879Z,46.04
2022-07-29T10:10:34.174Z,44.58
2022-07-29T10:13:07.125Z,45.15
2022-07-29T10:15:44.755Z,45.24
2022-07-29T10:18:12.409Z,45.08
2022-07-29T10:20:39.183Z,45.10
2022-07-29T10:23:05.891Z,44.85
2022-07-29T10:25:32.620Z,44.85
2022-07-29T10:27:59.328Z,44.96
2022-07-29T10:30:26.366Z,44.39
2022-07-29T10:32:58.912Z,43.62
2022-07-29T10:35:56.760Z,42.99
2022-07-29T10:38:38.470Z,42.58
2022-07-29T10:41:32.398Z,43.00
2022-07-29T10:44:23.248Z,43.63
2022-07-29T10:46:51.586Z,43.83
2022-07-29T10:49:18.957Z,44.60
2022-07-29T10:51:58.658Z,44.72
2022-07-29T10:54:42.414Z,45.00
2022-07-29T10:57:17.680Z,45.20
2022-07-29T10:59:46.171Z,45.08
2022-07-29T11:02:41.720Z,44.80
2022-07-29T11:05:12.912Z,44.68
2022-07-29T11:07:45.614Z,44.40
2022-07-29T11:10:12.958Z,44.53
2022-07-29T11:12:47.850Z,44.22
2022-07-29T11:15:25.253Z,43.74
2022-07-29T11:17:55.262Z,43.79
2022-07-29T11:20:49.707Z,43.65
2022-07-29T11:23:25.811Z,43.49
2022-07-29T11:26:10.976Z,43.17
2022-07-29T11:28:52.776Z,43.15
2022-07-29T11:31:33.678Z,43.19
2022-07-29T11:34:20.943Z,43.31
2022-07-29T11:37:12.576Z,43.47
2022-07-29T11:39:40.452Z,42.92
2022-07-29T11:42:32.211Z,42.90
2022-07-29T11:45:44.312Z,42.92
2022-07-29T11:47:54.597Z,42.56
2022-07-29T11:50:37.159Z,42.20
2022-07-29T11:53:10.964Z,41.88
2022-07-29T11:55:38.401Z,42.18
2022-07-29T11:58:21.835Z,41.50
2022-07-29T12:00:52.118Z,41.71
2022-07-29T12:03:35.502Z,41.58
2022-07-29T12:06:07.564Z,41.04
2022-07-29T12:08:40.739Z,40.63
2022-07-29T12:11:16.384Z,40.48
2022-07-29T12:13:43.068Z,40.40
2022-07-29T12:16:09.702Z,40.29
2022-07-29T12:18:41.268Z,40.51
2022-07-29T12:21:09.278Z,40.75
2022-07-29T12:23:39.238Z,40.75
2022-07-29T12:26:07.591Z,41.13
2022-07-29T12:28:40.485Z,41.16
2022-07-29T12:31:08.272Z,41.51
2022-07-29T12:33:35.973Z,41.42
2022-07-29T12:36:07.621Z,41.20
2022-07-29T12:38:37.929Z,41.67
2022-07-29T12:41:04.929Z,41.59
2022-07-29T12:43:31.857Z,41.46
2022-07-29T12:45:58.465Z,41.56
2022-07-29T12:48:38.756Z,41.23
2022-07-29T12:51:07.034Z,41.38
2022-07-29T12:53:33.675Z,41.41
2022-07-29T12:56:07.942Z,41.19
2022-07-29T12:58:42.701Z,41.14
2022-07-29T13:01:18.080Z,41.02
2022-07-29T13:03:59.690Z,40.95
2022-07-29T13:06:29.211Z,40.74
2022-07-29T13:09:04.908Z,40.96
2022-07-29T13:11:33.526Z,41.05
2022-07-29T13:14:05.814Z,41.39
2022-07-29T13:16:33.792Z,41.20
2022-07-29T13:19:13.136Z,41.05
2022-07-29T13:21:40.067Z,41.09
2022-07-29T13:24:07.432Z,40.97
2022-07-29T13:26:34.025Z,41.06
2022-07-29T13:29:00.604Z,40.87
2022-07-29T13:31:27.368Z,40.51
2022-07-29T13:33:54.039Z,40.31
2022-07-29T13:36:21.368Z,40.12
2022-07-29T13:38:48.014Z,40.29
2022-07-29T13:41:14.588Z,40.33
2022-07-29T13:43:41.209Z,40.47
2022-07-29T13:46:07.863Z,40.54
2022-07-29T13:48:34.732Z,40.67
2022-07-29T13:51:01.345Z,40.79
2022-07-29T13:53:29.660Z,40.53
2022-07-29T13:55:56.354Z,40.36
2022-07-29T13:58:22.997Z,40.20
2022-07-29T14:00:49.701Z,39.85
2022-07-29T14:03:16.472Z,39.93
2022-07-29T14:05:43.089Z,39.98
2022-07-29T14:08:09.775Z,40.08
2022-07-29T14:10:36.388Z,39.87
2022-07-29T14:13:03.076Z,39.74
2022-07-29T14:15:29.843Z,39.92
2022-07-29T14:17:56.442Z,40.05
2022-07-29T14:20:23.029Z,39.45
2022-07-29T14:22:49.930Z,39.75
2022-07-29T14:25:16.865Z,39.91
2022-07-29T14:27:44.231Z,39.83
2022-07-29T14:30:11.282Z,39.69
2022-07-29T14:32:37.877Z,39.70
2022-07-29T14:35:05.510Z,39.53
2022-07-29T14:37:40.411Z,39.30
2022-07-29T14:40:08.165Z,39.28
2022-07-29T14:42:34.841Z,39.42
2022-07-29T14:45:01.484Z,39.09
2022-07-29T14:47:28.161Z,39.24
2022-07-29T14:49:55.887Z,39.34
2022-07-29T14:52:22.558Z,39.21
2022-07-29T14:54:49.187Z,39.28
2022-07-29T14:57:15.914Z,39.00
2022-07-29T14:59:42.552Z,39.22
2022-07-29T15:02:09.357Z,39.11
2022-07-29T15:04:36.019Z,39.17
2022-07-29T15:07:02.803Z,38.97
2022-07-29T15:09:29.451Z,39.23
2022-07-29T15:11:56.512Z,39.04
2022-07-29T15:14:23.517Z,39.00
2022-07-29T15:16:50.163Z,38.98
2022-07-29T15:19:19.456Z,39.13
2022-07-29T15:21:48.173Z,38.96
2022-07-29T15:24:19.109Z,38.76
2022-07-29T15:26:46.513Z,38.48
2022-07-29T15:29:13.193Z,38.76
2022-07-29T15:31:39.914Z,38.87
2022-07-29T15:34:08.081Z,38.53
2022-07-29T15:36:52.616Z,38.59
2022-07-29T15:39:20.784Z,38.63
2022-07-29T15:41:47.428Z,38.68
2022-07-29T15:44:14.117Z,38.43
2022-07-29T15:46:59.904Z,38.71
2022-07-29T15:49:47.497Z,38.90
2022-07-29T15:52:15.695Z,39.00
2022-07-29T15:54:42.406Z,39.02
2022-07-29T15:57:10.056Z,38.68
2022-07-29T15:59:36.792Z,38.87
2022-07-29T16:02:03.414Z,38.53
2022-07-29T16:04:29.994Z,38.62
2022-07-29T16:06:57.528Z,38.66
2022-07-29T16:09:24.373Z,38.29
2022-07-29T16:11:53.583Z,38.27
2022-07-29T16:14:20.496Z,38.49
2022-07-29T16:16:47.207Z,38.45
2022-07-29T16:19:13.868Z,38.37
2022-07-29T16:21:40.501Z,38.42
2022-07-29T16:24:07.362Z,38.06
2022-07-29T16:26:34.327Z,38.02
2022-07-29T16:29:01.031Z,38.21
2022-07-29T16:31:27.743Z,38.25
2022-07-29T16:33:55.967Z,38.19
2022-07-29T16:36:23.118Z,38.22
2022-07-29T16:38:49.860Z,37.98
2022-07-29T16:41:16.494Z,37.90
2022-07-29T16:43:43.181Z,38.18
2022-07-29T16:46:13.101Z,38.19
2022-07-29T16:48:45.463Z,38.19
2022-07-29T16:51:14.473Z,38.29
2022-07-29T16:53:41.538Z,38.31
2022-07-29T16:56:11.185Z,38.08
2022-07-29T16:58:43.454Z,38.10
2022-07-29T17:01:10.997Z,37.62
2022-07-29T17:04:00.230Z,37.70
2022-07-29T17:06:27.454Z,37.88
2022-07-29T17:08:54.059Z,37.99
2022-07-29T17:11:20.663Z,37.84
2022-07-29T17:13:47.342Z,37.96
2022-07-29T17:16:13.942Z,37.99
2022-07-29T17:18:40.590Z,37.90
2022-07-29T17:21:07.174Z,37.89
2022-07-29T17:23:33.826Z,37.72
2022-07-29T17:26:00.439Z,37.72
2022-07-29T17:28:27.053Z,37.79
2022-07-29T17:30:53.639Z,37.73
2022-07-29T17:33:20.237Z,37.67
2022-07-29T17:36:05.630Z,37.71
2022-07-29T17:38:32.231Z,37.62
2022-07-29T17:40:58.845Z,37.62
2022-07-29T17:43:25.535Z,37.49
2022-07-29T17:45:52.147Z,37.29
2022-07-29T17:48:19.144Z,37.25
2022-07-29T17:50:46.558Z,37.23
2022-07-29T17:53:15.656Z,37.29
2022-07-29T17:55:45.362Z,37.26
2022-07-29T17:58:12.117Z,37.28
2022-07-29T18:00:39.052Z,37.19
2022-07-29T18:03:05.870Z,37.18
2022-07-29T18:05:32.744Z,37.14
2022-07-29T18:07:59.362Z,37.12
2022-07-29T18:10:25.967Z,37.01
2022-07-29T18:12:52.549Z,37.01
2022-07-29T18:15:19.152Z,37.06
2022-07-29T18:17:56.589Z,37.05
2022-07-29T18:20:25.095Z,37.01
2022-07-29T18:22:51.711Z,36.91
2022-07-29T18:25:18.402Z,36.85
2022-07-29T18:27:45.209Z,36.86
2022-07-29T18:30:11.885Z,36.88
2022-07-29T18:32:38.456Z,36.85
2022-07-29T18:35:06.377Z,36.79
2022-07-29T18:38:01.980Z,36.75
2022-07-29T18:40:25.686Z,36.70
2022-07-29T18:42:53.027Z,36.63
2022-07-29T18:45:19.891Z,36.57
2022-07-29T18:47:49.076Z,36.53
2022-07-29T18:50:16.357Z,36.38
2022-07-29T18:52:42.999Z,36.43
2022-07-29T18:55:09.741Z,36.47
2022-07-29T18:57:54.117Z,36.50
2022-07-29T19:00:23.852Z,36.34
2022-07-29T19:02:50.653Z,36.42
2022-07-29T19:05:17.439Z,36.41
2022-07-29T19:07:44.050Z,36.35
2022-07-29T19:10:11.250Z,36.22
2022-07-29T19:12:37.882Z,36.20
2022-07-29T19:15:04.616Z,36.12
2022-07-29T19:17:31.211Z,36.05
2022-07-29T19:19:57.819Z,36.02
2022-07-29T19:22:24.502Z,35.95
2022-07-29T19:24:51.196Z,35.87
2022-07-29T19:27:17.824Z,35.78
2022-07-29T19:29:44.454Z,35.74
2022-07-29T19:32:11.065Z,35.69
2022-07-29T19:34:38.299Z,35.52
2022-07-29T19:37:05.290Z,35.49
2022-07-29T19:39:35.406Z,35.44
2022-07-29T19:42:03.520Z,35.35
2022-07-29T19:44:30.344Z,35.30
2022-07-29T19:46:59.459Z,35.24
2022-07-29T19:49:26.306Z,35.15
2022-07-29T19:51:53.442Z,35.08
2022-07-29T19:54:20.801Z,34.90
2022-07-29T19:56:47.423Z,34.90
2022-07-29T19:59:14.636Z,34.87
2022-07-29T20:01:41.381Z,34.77
2022-07-29T20:04:08.088Z,34.71
2022-07-29T20:06:34.885Z,34.66
2022-07-29T20:09:01.517Z,34.41
2022-07-29T20:11:29.748Z,34.46
2022-07-29T20:13:56.667Z,34.33
2022-07-29T20:16:23.323Z,34.30
2022-07-29T20:18:52.176Z,34.23
2022-07-29T20:21:18.785Z,34.10
2022-07-29T20:23:45.948Z,34.03
2022-07-29T20:26:12.785Z,33.91
2022-07-29T20:28:40.239Z,33.86
2022-07-29T20:31:07.066Z,33.90
2022-07-29T20:33:33.844Z,33.73
2022-07-29T20:36:00.453Z,33.75
2022-07-29T20:38:28.507Z,33.69
2022-07-29T20:40:58.569Z,33.63
2022-07-29T20:43:26.191Z,33.69
2022-07-29T20:45:52.854Z,33.59
2022-07-29T20:48:19.511Z,33.58
2022-07-29T20:50:47.562Z,33.59
2022-07-29T20:53:19.079Z,33.39
2022-07-29T20:55:45.691Z,33.30
2022-07-29T20:58:12.251Z,33.35
2022-07-29T21:00:38.949Z,33.41
2022-07-29T21:03:05.614Z,33.41
2022-07-29T21:05:32.838Z,33.33
2022-07-29T21:07:59.616Z,33.27
2022-07-29T21:10:26.289Z,33.10
2022-07-29T21:12:52.916Z,33.02
2022-07-29T21:15:21.581Z,33.00
2022-07-29T21:17:48.256Z,33.00
2022-07-29T21:20:15.785Z,33.00
2022-07-29T21:22:42.484Z,32.81
2022-07-29T21:25:09.980Z,32.77
2022-07-29T21:27:55.679Z,32.81
2022-07-29T21:30:22.430Z,32.72
2022-07-29T21:32:49.089Z,32.71
2022-07-29T21:35:30.277Z,32.75
2022-07-29T21:38:02.367Z,32.69
2022-07-29T21:40:30.412Z,32.49
2022-07-29T21:42:57.097Z,32.51
2022-07-29T21:45:23.821Z,32.37
2022-07-29T21:47:50.450Z,32.27
2022-07-29T21:50:17.067Z,32.19
2022-07-29T21:52:43.687Z,32.13
2022-07-29T21:55:10.671Z,32.14
2022-07-29T21:57:38.294Z,32.08
2022-07-29T22:00:05.729Z,31.97
2022-07-29T22:02:32.346Z,32.02
2022-07-29T22:04:58.929Z,31.99
2022-07-29T22:07:25.536Z,32.01
2022-07-29T22:10:12.140Z,31.93
2022-07-29T22:12:38.747Z,31.76
2022-07-29T22:15:05.676Z,31.76
2022-07-29T22:17:32.307Z,31.80
2022-07-29T22:19:59.009Z,31.70
2022-07-29T22:22:25.693Z,31.69
2022-07-29T22:24:52.264Z,31.55
2022-07-29T22:27:18.865Z,31.55
2022-07-29T22:29:45.459Z,31.40
2022-07-29T22:32:12.036Z,31.39
2022-07-29T22:34:38.628Z,31.42
2022-07-29T22:37:05.211Z,31.31
2022-07-29T22:39:31.831Z,31.27
2022-07-29T22:41:58.463Z,31.24
2022-07-29T22:44:25.167Z,31.27
2022-07-29T22:46:51.798Z,31.29
2022-07-29T22:49:18.508Z,31.29
2022-07-29T22:51:45.189Z,31.20
2022-07-29T22:54:11.895Z,31.09
2022-07-29T22:56:38.468Z,31.05
2022-07-29T22:59:05.113Z,31.04
2022-07-29T23:01:38.048Z,31.05
2022-07-29T23:04:05.551Z,31.09
2022-07-29T23:06:32.251Z,31.02
2022-07-29T23:08:58.869Z,30.93
2022-07-29T23:11:25.498Z,30.97
2022-07-29T23:13:52.140Z,30.82
2022-07-29T23:16:26.583Z,30.79
2022-07-29T23:18:54.154Z,30.72
2022-07-29T23:21:23.682Z,30.75
2022-07-29T23:23:50.424Z,30.92
2022-07-29T23:26:17.105Z,30.90
2022-07-29T23:28:46.807Z,30.90
2022-07-29T23:31:13.687Z,30.92
2022-07-29T23:33:41.224Z,30.87
2022-07-29T23:36:07.865Z,30.81
2022-07-29T23:38:34.476Z,30.81
2022-07-29T23:41:02.353Z,30.85
2022-07-29T23:43:28.957Z,30.78
2022-07-29T23:45:56.190Z,30.73
2022-07-29T23:48:24.848Z,30.68
2022-07-29T23:50:51.732Z,30.66
2022-07-29T23:53:18.396Z,30.58
2022-07-29T23:55:45.063Z,30.61
2022-07-29T23:58:11.687Z,30.59
